This is the latest recevied weather packets stored in our database for station/object WA4IKQ. If no packets are shown the sender has not sent any weather packets the latest 10 day(s).
| Time | Temp. | Humidity | Pressure | Rain* | Wind** | Luminosity | Snow |
|---|---|---|---|---|---|---|---|
| 1777630087 | 23.33° C | 87% | 1010.7 hPa | 0 mm | 1.79 m/s, 222° | - | - |
| 1777629487 | 23.33° C | 87% | 1010.8 hPa | 0 mm | 1.79 m/s, 235° | - | - |
| 1777629188 | 23.33° C | 87% | 1010.9 hPa | 0 mm | 0.45 m/s, 203° | - | - |
| 1777628888 | 23.89° C | 87% | 1010.9 hPa | 0 mm | 1.79 m/s, 214° | - | - |
| 1777628288 | 23.33° C | 87% | 1010.7 hPa | 0 mm | 0.89 m/s, 197° | - | - |
| 1777628206 | 23.89° C | 87% | 1010.8 hPa | 0 mm | 1.34 m/s, 263° | - | - |
| 1777627986 | 23.89° C | 87% | 1010.8 hPa | 0 mm | 1.34 m/s, 263° | - | - |
| 1777627894 | 23.89° C | 87% | 1010.7 hPa | 0 mm | 2.68 m/s, 207° | - | - |
| 1777627686 | 23.89° C | 87% | 1010.7 hPa | 0 mm | 2.68 m/s, 207° | - | - |
| 1777627606 | 23.89° C | 87% | 1010.8 hPa | 0 mm | 0.89 m/s, 191° | - | - |
| 1777627542 | 23.89° C | 87% | 1010.8 hPa | 0 mm | 0.89 m/s, 191° | - | - |
| 1777627387 | 23.89° C | 87% | 1010.8 hPa | 0 mm | 0.89 m/s, 191° | - | - |
| 1777627220 | 23.89° C | 86% | 1010.9 hPa | 0 mm | 1.79 m/s, 201° | - | - |
| 1777626821 | 23.89° C | 86% | 1011 hPa | 0 mm | 2.68 m/s, 193° | - | - |
| 1777626787 | 23.89° C | 86% | 1011 hPa | 0 mm | 2.68 m/s, 193° | - | - |
| 1777626571 | 23.89° C | 86% | 1011.2 hPa | 0 mm | 1.34 m/s, 278° | - | - |
| 1777626488 | 23.89° C | 86% | 1011.2 hPa | 0 mm | 1.34 m/s, 278° | - | - |
| 1777626369 | 23.89° C | 86% | 1010.6 hPa | 0 mm | 1.79 m/s, 221° | - | - |
| 1777626188 | 23.89° C | 86% | 1010.6 hPa | 0 mm | 1.79 m/s, 221° | - | - |
| 1777626056 | 23.89° C | 86% | 1010.3 hPa | 0 mm | 2.68 m/s, 231° | - | - |
| 1777625886 | 23.89° C | 86% | 1010.3 hPa | 0 mm | 2.68 m/s, 231° | - | - |
| 1777625720 | 23.89° C | 86% | 1010.3 hPa | 0 mm | 0 m/s | - | - |
| 1777625586 | 23.89° C | 86% | 1010.3 hPa | 0 mm | 0 m/s | - | - |
| 1777625349 | 23.89° C | 86% | 1010.3 hPa | 0 mm | 0.89 m/s, 221° | - | - |
| 1777625018 | 23.89° C | 86% | 1010.4 hPa | 0 mm | 2.24 m/s, 198° | - | - |
* Rain latest hour (hover to see other rain measurements)
** Current wind speed in m/s (hover to see current wind gust speed)